Check out our new PWSWeather beta!
PWSweather.com
Personal Weather Stations
Station Observations

PoschiavoCH

Lat: 46.31962499999999, Lon: 10.066551000000004

Elevation: 3517

Station Type: WH 1080

http://www.meteoposchiavo.com

High Low Average
Temperature 64.0°F17.8°C 42.0°F5.6°C 51.5°F10.8°C
Dew Point 45.8°F7.7°C 37.5°F3.1°C 41.8°F5.4°C
Winds 3.5 mph 5.6 kmh Calm Calm Calm ECalm E
Wind Gusts 3.5 mph5.6 kmh -- 1.0 mph1.6 kmh
Humidity 90% 48% 71%
Pressure 26.54 in898.7 mb 26.37 in893.0 mb -
Precipitation 0.00 in0.0 mm - -
Hour Temp Dew Point Humidity Winds Wind Gusts Pressure Precip Precip Rate Daily Precip Total
12:00 AM 42.0°F5.6°C 38.4°F3.6°C 87% Calm Calm -- 26.39 in893.7 mb - 0.00 in0.0 mm 0.00 in0.0 mm
12:10 AM 42.0°F5.6°C 37.5°F3.1°C 84% Calm Calm -- 26.38 in893.3 mb - 0.00 in0.0 mm 0.00 in0.0 mm
12:15 AM 42.0°F5.6°C 38.7°F3.7°C 88% Calm Calm -- 26.39 in893.7 mb - 0.00 in0.0 mm 0.00 in0.0 mm
12:20 AM 42.0°F5.6°C 37.8°F3.2°C 85% Calm Calm -- 26.38 in893.3 mb - 0.00 in0.0 mm 0.00 in0.0 mm
12:25 AM 42.8°F6.0°C 38.6°F3.7°C 85% Calm Calm -- 26.38 in893.3 mb - 0.00 in0.0 mm 0.00 in0.0 mm
12:30 AM 43.0°F6.1°C 38.8°F3.8°C 85% Calm Calm -- 26.38 in893.3 mb - 0.00 in0.0 mm 0.00 in0.0 mm
12:35 AM 43.0°F6.1°C 39.7°F4.3°C 88% Calm Calm -- 26.39 in893.7 mb - 0.00 in0.0 mm 0.00 in0.0 mm
12:40 AM 43.0°F6.1°C 39.7°F4.3°C 88% Calm Calm -- 26.39 in893.7 mb - 0.00 in0.0 mm 0.00 in0.0 mm
12:45 AM 43.0°F6.1°C 39.7°F4.3°C 88% Calm Calm -- 26.38 in893.3 mb - 0.00 in0.0 mm 0.00 in0.0 mm
12:50 AM 43.0°F6.1°C 39.7°F4.3°C 88% Calm Calm -- 26.39 in893.7 mb - 0.00 in0.0 mm 0.00 in0.0 mm
12:55 AM 44.0°F6.7°C 39.2°F4.0°C 83% Calm Calm -- 26.39 in893.7 mb - 0.00 in0.0 mm 0.00 in0.0 mm
01:00 AM 44.0°F6.7°C 39.5°F4.2°C 84% Calm Calm -- 26.39 in893.7 mb - 0.00 in0.0 mm 0.00 in0.0 mm
01:10 AM 44.0°F6.7°C 39.5°F4.2°C 84% Calm Calm -- 26.39 in893.7 mb - 0.00 in0.0 mm 0.00 in0.0 mm
01:15 AM 44.0°F6.7°C 40.1°F4.5°C 86% Calm Calm -- 26.38 in893.3 mb - 0.00 in0.0 mm 0.00 in0.0 mm
01:20 AM 43.0°F6.1°C 39.1°F3.9°C 86% Calm Calm -- 26.39 in893.7 mb - 0.00 in0.0 mm 0.00 in0.0 mm
01:25 AM 44.0°F6.7°C 39.8°F4.3°C 85% Calm Calm -- 26.39 in893.7 mb - 0.00 in0.0 mm 0.00 in0.0 mm
01:30 AM 44.0°F6.7°C 40.1°F4.5°C 86% Calm Calm -- 26.39 in893.7 mb - 0.00 in0.0 mm 0.00 in0.0 mm
01:35 AM 44.0°F6.7°C 40.4°F4.7°C 87% Calm Calm -- 26.39 in893.7 mb - 0.00 in0.0 mm 0.00 in0.0 mm
01:40 AM 43.0°F6.1°C 39.7°F4.3°C 88% Calm Calm -- 26.39 in893.7 mb - 0.00 in0.0 mm 0.00 in0.0 mm
01:45 AM 43.0°F6.1°C 39.4°F4.1°C 87% Calm Calm -- 26.39 in893.7 mb - 0.00 in0.0 mm 0.00 in0.0 mm
01:50 AM 43.0°F6.1°C 39.1°F3.9°C 86% Calm Calm -- 26.39 in893.7 mb - 0.00 in0.0 mm 0.00 in0.0 mm
01:55 AM 43.0°F6.1°C 39.7°F4.3°C 88% Calm Calm -- 26.39 in893.7 mb - 0.00 in0.0 mm 0.00 in0.0 mm
02:00 AM 43.0°F6.1°C 38.8°F3.8°C 85% Calm Calm -- 26.39 in893.7 mb - 0.00 in0.0 mm 0.00 in0.0 mm
02:10 AM 43.0°F6.1°C 39.1°F3.9°C 86% Calm Calm -- 26.39 in893.7 mb - 0.00 in0.0 mm 0.00 in0.0 mm
02:15 AM 43.0°F6.1°C 39.7°F4.3°C 88% Calm Calm -- 26.38 in893.3 mb - 0.00 in0.0 mm 0.00 in0.0 mm
02:20 AM 43.0°F6.1°C 39.7°F4.3°C 88% Calm Calm -- 26.37 in893.0 mb - 0.00 in0.0 mm 0.00 in0.0 mm
02:25 AM 43.0°F6.1°C 39.1°F3.9°C 86% Calm Calm -- 26.38 in893.3 mb - 0.00 in0.0 mm 0.00 in0.0 mm
02:30 AM 43.0°F6.1°C 39.4°F4.1°C 87% Calm Calm -- 26.38 in893.3 mb - 0.00 in0.0 mm 0.00 in0.0 mm
02:35 AM 44.0°F6.7°C 40.1°F4.5°C 86% Calm Calm -- 26.39 in893.7 mb - 0.00 in0.0 mm 0.00 in0.0 mm
02:40 AM 44.0°F6.7°C 40.4°F4.7°C 87% Calm Calm -- 26.39 in893.7 mb - 0.00 in0.0 mm 0.00 in0.0 mm
02:45 AM 44.0°F6.7°C 40.4°F4.7°C 87% Calm Calm -- 26.39 in893.7 mb - 0.00 in0.0 mm 0.00 in0.0 mm
02:50 AM 44.0°F6.7°C 39.5°F4.2°C 84% Calm Calm -- 26.39 in893.7 mb - 0.00 in0.0 mm 0.00 in0.0 mm
02:55 AM 44.0°F6.7°C 40.1°F4.5°C 86% Calm Calm -- 26.39 in893.7 mb - 0.00 in0.0 mm 0.00 in0.0 mm
03:00 AM 44.0°F6.7°C 40.4°F4.7°C 87% Calm Calm -- 26.38 in893.3 mb - 0.00 in0.0 mm 0.00 in0.0 mm
03:10 AM 44.0°F6.7°C 40.7°F4.8°C 88% Calm Calm -- 26.39 in893.7 mb - 0.00 in0.0 mm 0.00 in0.0 mm
03:15 AM 44.0°F6.7°C 40.7°F4.8°C 88% Calm Calm -- 26.39 in893.7 mb - 0.00 in0.0 mm 0.00 in0.0 mm
03:20 AM 43.0°F6.1°C 40.0°F4.4°C 89% Calm Calm -- 26.39 in893.7 mb - 0.00 in0.0 mm 0.00 in0.0 mm
03:25 AM 43.0°F6.1°C 39.1°F3.9°C 86% Calm Calm -- 26.39 in893.7 mb - 0.00 in0.0 mm 0.00 in0.0 mm
03:30 AM 43.0°F6.1°C 38.8°F3.8°C 85% Calm Calm -- 26.39 in893.7 mb - 0.00 in0.0 mm 0.00 in0.0 mm
03:35 AM 44.0°F6.7°C 39.5°F4.2°C 84% Calm Calm -- 26.39 in893.7 mb - 0.00 in0.0 mm 0.00 in0.0 mm
03:40 AM 43.0°F6.1°C 38.8°F3.8°C 85% Calm Calm -- 26.39 in893.7 mb - 0.00 in0.0 mm 0.00 in0.0 mm
03:45 AM 42.0°F5.6°C 38.7°F3.7°C 88% Calm Calm -- 26.39 in893.7 mb - 0.00 in0.0 mm 0.00 in0.0 mm
03:50 AM 42.0°F5.6°C 38.7°F3.7°C 88% Calm Calm -- 26.39 in893.7 mb - 0.00 in0.0 mm 0.00 in0.0 mm
03:55 AM 42.0°F5.6°C 38.4°F3.6°C 87% Calm Calm -- 26.39 in893.7 mb - 0.00 in0.0 mm 0.00 in0.0 mm
04:00 AM 42.0°F5.6°C 38.4°F3.6°C 87% Calm Calm -- 26.39 in893.7 mb - 0.00 in0.0 mm 0.00 in0.0 mm
04:10 AM 42.0°F5.6°C 38.4°F3.6°C 87% Calm Calm -- 26.39 in893.7 mb - 0.00 in0.0 mm 0.00 in0.0 mm
04:15 AM 42.0°F5.6°C 38.4°F3.6°C 87% Calm Calm -- 26.39 in893.7 mb - 0.00 in0.0 mm 0.00 in0.0 mm
04:20 AM 42.0°F5.6°C 38.7°F3.7°C 88% Calm Calm -- 26.39 in893.7 mb - 0.00 in0.0 mm 0.00 in0.0 mm
04:25 AM 42.9°F6.1°C 39.6°F4.2°C 88% Calm Calm -- 26.39 in893.7 mb - 0.00 in0.0 mm 0.00 in0.0 mm
04:30 AM 42.0°F5.6°C 38.4°F3.6°C 87% Calm Calm -- 26.39 in893.7 mb - 0.00 in0.0 mm 0.00 in0.0 mm
04:35 AM 43.0°F6.1°C 38.8°F3.8°C 85% Calm Calm -- 26.38 in893.3 mb - 0.00 in0.0 mm 0.00 in0.0 mm
04:40 AM 43.0°F6.1°C 39.1°F3.9°C 86% Calm Calm -- 26.39 in893.7 mb - 0.00 in0.0 mm 0.00 in0.0 mm
04:45 AM 43.0°F6.1°C 39.1°F3.9°C 86% Calm Calm -- 26.38 in893.3 mb - 0.00 in0.0 mm 0.00 in0.0 mm
04:50 AM 43.0°F6.1°C 39.1°F3.9°C 86% Calm Calm -- 26.38 in893.3 mb - 0.00 in0.0 mm 0.00 in0.0 mm
04:55 AM 43.0°F6.1°C 39.1°F3.9°C 86% Calm Calm -- 26.38 in893.3 mb - 0.00 in0.0 mm 0.00 in0.0 mm
05:00 AM 43.0°F6.1°C 39.4°F4.1°C 87% Calm Calm -- 26.39 in893.7 mb - 0.00 in0.0 mm 0.00 in0.0 mm
05:10 AM 43.0°F6.1°C 39.4°F4.1°C 87% Calm Calm -- 26.39 in893.7 mb - 0.00 in0.0 mm 0.00 in0.0 mm
05:15 AM 43.0°F6.1°C 39.1°F3.9°C 86% Calm Calm -- 26.38 in893.3 mb - 0.00 in0.0 mm 0.00 in0.0 mm
05:20 AM 43.0°F6.1°C 39.7°F4.3°C 88% Calm Calm -- 26.38 in893.3 mb - 0.00 in0.0 mm 0.00 in0.0 mm
05:25 AM 43.0°F6.1°C 39.7°F4.3°C 88% Calm Calm -- 26.38 in893.3 mb - 0.00 in0.0 mm 0.00 in0.0 mm
05:30 AM 43.0°F6.1°C 39.7°F4.3°C 88% Calm Calm -- 26.38 in893.3 mb - 0.00 in0.0 mm 0.00 in0.0 mm
05:35 AM 43.0°F6.1°C 39.7°F4.3°C 88% Calm Calm -- 26.39 in893.7 mb - 0.00 in0.0 mm 0.00 in0.0 mm
05:40 AM 43.0°F6.1°C 39.1°F3.9°C 86% Calm Calm -- 26.39 in893.7 mb - 0.00 in0.0 mm 0.00 in0.0 mm
05:45 AM 44.0°F6.7°C 40.4°F4.7°C 87% Calm Calm -- 26.39 in893.7 mb - 0.00 in0.0 mm 0.00 in0.0 mm
05:50 AM 44.0°F6.7°C 40.7°F4.8°C 88% Calm Calm -- 26.39 in893.7 mb - 0.00 in0.0 mm 0.00 in0.0 mm
05:55 AM 44.0°F6.7°C 40.7°F4.8°C 88% Calm Calm -- 26.39 in893.7 mb - 0.00 in0.0 mm 0.00 in0.0 mm
06:00 AM 44.0°F6.7°C 39.8°F4.3°C 85% Calm Calm -- 26.39 in893.7 mb - 0.00 in0.0 mm 0.00 in0.0 mm
06:10 AM 45.0°F7.2°C 40.5°F4.7°C 84% Calm Calm -- 26.39 in893.7 mb - 0.00 in0.0 mm 0.00 in0.0 mm
06:15 AM 45.0°F7.2°C 40.1°F4.5°C 83% Calm Calm -- 26.39 in893.7 mb - 0.00 in0.0 mm 0.00 in0.0 mm
06:20 AM 45.9°F7.7°C 41.3°F5.2°C 84% Calm Calm -- 26.39 in893.7 mb - 0.00 in0.0 mm 0.00 in0.0 mm
06:25 AM 46.0°F7.8°C 41.4°F5.2°C 84% Calm Calm -- 26.39 in893.7 mb - 0.00 in0.0 mm 0.00 in0.0 mm
06:30 AM 46.0°F7.8°C 41.1°F5.1°C 83% Calm Calm -- 26.39 in893.7 mb - 0.00 in0.0 mm 0.00 in0.0 mm
06:35 AM 46.0°F7.8°C 40.8°F4.9°C 82% Calm Calm -- 26.39 in893.7 mb - 0.00 in0.0 mm 0.00 in0.0 mm
06:40 AM 46.0°F7.8°C 40.2°F4.6°C 80% Calm Calm -- 26.38 in893.3 mb - 0.00 in0.0 mm 0.00 in0.0 mm
06:45 AM 47.0°F8.3°C 41.5°F5.3°C 81% Calm Calm -- 26.39 in893.7 mb - 0.00 in0.0 mm 0.00 in0.0 mm
06:50 AM 47.0°F8.3°C 41.5°F5.3°C 81% Calm Calm -- 26.39 in893.7 mb - 0.00 in0.0 mm 0.00 in0.0 mm
06:55 AM 47.0°F8.3°C 41.5°F5.3°C 81% Calm Calm -- 26.39 in893.7 mb - 0.00 in0.0 mm 0.00 in0.0 mm
07:00 AM 47.0°F8.3°C 40.8°F4.9°C 79% Calm Calm -- 26.39 in893.7 mb - 0.00 in0.0 mm 0.00 in0.0 mm
07:10 AM 48.0°F8.9°C 42.1°F5.6°C 80% Calm Calm -- 26.39 in893.7 mb - 0.00 in0.0 mm 0.00 in0.0 mm
07:15 AM 48.0°F8.9°C 41.5°F5.3°C 78% Calm Calm -- 26.39 in893.7 mb - 0.00 in0.0 mm 0.00 in0.0 mm
07:20 AM 48.0°F8.9°C 40.8°F4.9°C 76% Calm Calm -- 26.40 in894.0 mb - 0.00 in0.0 mm 0.00 in0.0 mm
07:25 AM 48.1°F8.9°C 40.9°F4.9°C 76% Calm Calm -- 26.40 in894.0 mb - 0.00 in0.0 mm 0.00 in0.0 mm
07:30 AM 49.0°F9.4°C 41.1°F5.1°C 74% Calm Calm -- 26.40 in894.0 mb - 0.00 in0.0 mm 0.00 in0.0 mm
07:35 AM 50.0°F10.0°C 40.6°F4.8°C 70% Calm Calm -- 26.40 in894.0 mb - 0.00 in0.0 mm 0.00 in0.0 mm
07:40 AM 50.0°F10.0°C 39.8°F4.3°C 68% Calm Calm -- 26.40 in894.0 mb - 0.00 in0.0 mm 0.00 in0.0 mm
07:45 AM 51.0°F10.6°C 40.8°F4.9°C 68% Calm Calm -- 26.39 in893.7 mb - 0.00 in0.0 mm 0.00 in0.0 mm
07:50 AM 51.0°F10.6°C 40.4°F4.7°C 67% Calm Calm -- 26.40 in894.0 mb - 0.00 in0.0 mm 0.00 in0.0 mm
07:55 AM 51.0°F10.6°C 40.4°F4.7°C 67% Calm Calm -- 26.40 in894.0 mb - 0.00 in0.0 mm 0.00 in0.0 mm
08:00 AM 50.0°F10.0°C 43.7°F6.5°C 79% Calm Calm -- 26.40 in894.0 mb - 0.00 in0.0 mm 0.00 in0.0 mm
08:10 AM 50.0°F10.0°C 42.7°F5.9°C 76% 1.2 mph N1.9 kmh N 1.2 mph1.9 kmh 26.41 in894.3 mb - 0.00 in0.0 mm 0.00 in0.0 mm
08:15 AM 50.0°F10.0°C 41.0°F5.0°C 71% 2.3 mph N3.7 kmh N 3.5 mph5.6 kmh 26.41 in894.3 mb - 0.00 in0.0 mm 0.00 in0.0 mm
08:20 AM 50.0°F10.0°C 41.0°F5.0°C 71% 2.3 mph N3.7 kmh N 3.5 mph5.6 kmh 26.41 in894.3 mb - 0.00 in0.0 mm 0.00 in0.0 mm
08:25 AM 50.0°F10.0°C 41.7°F5.4°C 73% 1.2 mph N1.9 kmh N 2.3 mph3.7 kmh 26.41 in894.3 mb - 0.00 in0.0 mm 0.00 in0.0 mm
08:30 AM 50.0°F10.0°C 41.7°F5.4°C 73% Calm Calm -- 26.41 in894.3 mb - 0.00 in0.0 mm 0.00 in0.0 mm
08:35 AM 50.0°F10.0°C 41.3°F5.2°C 72% Calm Calm 1.2 mph1.9 kmh 26.41 in894.3 mb - 0.00 in0.0 mm 0.00 in0.0 mm
08:40 AM 50.0°F10.0°C 41.3°F5.2°C 72% 1.2 mph NNW1.9 kmh NNW 1.2 mph1.9 kmh 26.41 in894.3 mb - 0.00 in0.0 mm 0.00 in0.0 mm
08:45 AM 50.0°F10.0°C 41.3°F5.2°C 72% 1.2 mph NNW1.9 kmh NNW 1.2 mph1.9 kmh 26.41 in894.3 mb - 0.00 in0.0 mm 0.00 in0.0 mm
08:50 AM 51.0°F10.6°C 41.2°F5.1°C 69% Calm Calm 1.2 mph1.9 kmh 26.42 in894.7 mb - 0.00 in0.0 mm 0.00 in0.0 mm
08:55 AM 52.0°F11.1°C 41.4°F5.2°C 67% 1.2 mph NNE1.9 kmh NNE 2.3 mph3.7 kmh 26.41 in894.3 mb - 0.00 in0.0 mm 0.00 in0.0 mm
09:00 AM 53.0°F11.7°C 42.3°F5.7°C 67% 1.2 mph NE1.9 kmh NE 1.2 mph1.9 kmh 26.41 in894.3 mb - 0.00 in0.0 mm 0.00 in0.0 mm
09:10 AM 53.0°F11.7°C 41.9°F5.5°C 66% Calm Calm 1.2 mph1.9 kmh 26.42 in894.7 mb - 0.00 in0.0 mm 0.00 in0.0 mm
09:15 AM 53.0°F11.7°C 41.5°F5.3°C 65% 1.2 mph N1.9 kmh N 1.2 mph1.9 kmh 26.41 in894.3 mb - 0.00 in0.0 mm 0.00 in0.0 mm
09:20 AM 55.0°F12.8°C 41.8°F5.4°C 61% Calm Calm -- 26.41 in894.3 mb - 0.00 in0.0 mm 0.00 in0.0 mm
09:25 AM 55.0°F12.8°C 42.6°F5.9°C 63% Calm Calm -- 26.41 in894.3 mb - 0.00 in0.0 mm 0.00 in0.0 mm
09:30 AM 55.0°F12.8°C 41.8°F5.4°C 61% Calm Calm -- 26.41 in894.3 mb - 0.00 in0.0 mm 0.00 in0.0 mm
09:35 AM 55.4°F13.0°C 41.7°F5.4°C 60% Calm Calm -- 26.41 in894.3 mb - 0.00 in0.0 mm 0.00 in0.0 mm
09:40 AM 58.0°F14.4°C 41.9°F5.5°C 55% Calm Calm -- 26.41 in894.3 mb - 0.00 in0.0 mm 0.00 in0.0 mm
09:45 AM 60.0°F15.6°C 42.3°F5.7°C 52% Calm Calm -- 26.41 in894.3 mb - 0.00 in0.0 mm 0.00 in0.0 mm
09:50 AM 63.0°F17.2°C 43.5°F6.4°C 49% Calm Calm -- 26.41 in894.3 mb - 0.00 in0.0 mm 0.00 in0.0 mm
09:55 AM 61.0°F16.1°C 44.2°F6.8°C 54% Calm Calm 1.2 mph1.9 kmh 26.41 in894.3 mb - 0.00 in0.0 mm 0.00 in0.0 mm
10:00 AM 60.2°F15.7°C 43.0°F6.1°C 53% Calm Calm 1.2 mph1.9 kmh 26.40 in894.0 mb - 0.00 in0.0 mm 0.00 in0.0 mm
10:10 AM 59.0°F15.0°C 45.6°F7.6°C 61% Calm Calm 1.2 mph1.9 kmh 26.40 in894.0 mb - 0.00 in0.0 mm 0.00 in0.0 mm
10:15 AM 56.0°F13.3°C 43.2°F6.2°C 62% 2.3 mph NE3.7 kmh NE 3.5 mph5.6 kmh 26.41 in894.3 mb - 0.00 in0.0 mm 0.00 in0.0 mm
10:20 AM 57.0°F13.9°C 43.2°F6.2°C 60% 2.3 mph NW3.7 kmh NW 3.5 mph5.6 kmh 26.41 in894.3 mb - 0.00 in0.0 mm 0.00 in0.0 mm
10:25 AM 59.0°F15.0°C 45.1°F7.3°C 60% 1.2 mph SSW1.9 kmh SSW 2.3 mph3.7 kmh 26.41 in894.3 mb - 0.00 in0.0 mm 0.00 in0.0 mm
10:30 AM 58.5°F14.7°C 45.1°F7.3°C 61% 1.2 mph WNW1.9 kmh WNW 2.3 mph3.7 kmh 26.41 in894.3 mb - 0.00 in0.0 mm 0.00 in0.0 mm
10:35 AM 58.0°F14.4°C 44.6°F7.0°C 61% 1.2 mph N1.9 kmh N 2.3 mph3.7 kmh 26.41 in894.3 mb - 0.00 in0.0 mm 0.00 in0.0 mm
10:40 AM 56.0°F13.3°C 42.3°F5.7°C 60% 1.2 mph NE1.9 kmh NE 1.2 mph1.9 kmh 26.41 in894.3 mb - 0.00 in0.0 mm 0.00 in0.0 mm
10:45 AM 55.0°F12.8°C 42.2°F5.7°C 62% 1.2 mph ENE1.9 kmh ENE 1.2 mph1.9 kmh 26.41 in894.3 mb - 0.00 in0.0 mm 0.00 in0.0 mm
10:50 AM 55.0°F12.8°C 42.6°F5.9°C 63% 1.2 mph NE1.9 kmh NE 2.3 mph3.7 kmh 26.41 in894.3 mb - 0.00 in0.0 mm 0.00 in0.0 mm
10:55 AM 55.0°F12.8°C 42.6°F5.9°C 63% 2.3 mph N3.7 kmh N 3.5 mph5.6 kmh 26.41 in894.3 mb - 0.00 in0.0 mm 0.00 in0.0 mm
11:00 AM 55.0°F12.8°C 42.6°F5.9°C 63% 2.3 mph N3.7 kmh N 3.5 mph5.6 kmh 26.41 in894.3 mb - 0.00 in0.0 mm 0.00 in0.0 mm
11:10 AM 57.0°F13.9°C 43.2°F6.2°C 60% 1.2 mph NNE1.9 kmh NNE 1.2 mph1.9 kmh 26.40 in894.0 mb - 0.00 in0.0 mm 0.00 in0.0 mm
11:15 AM 57.0°F13.9°C 43.2°F6.2°C 60% Calm Calm 1.2 mph1.9 kmh 26.41 in894.3 mb - 0.00 in0.0 mm 0.00 in0.0 mm
11:20 AM 61.0°F16.1°C 44.2°F6.8°C 54% 1.2 mph N1.9 kmh N 2.3 mph3.7 kmh 26.40 in894.0 mb - 0.00 in0.0 mm 0.00 in0.0 mm
11:25 AM 60.5°F15.8°C 43.3°F6.3°C 53% 1.2 mph N1.9 kmh N 2.3 mph3.7 kmh 26.39 in893.7 mb - 0.00 in0.0 mm 0.00 in0.0 mm
11:30 AM 60.0°F15.6°C 42.3°F5.7°C 52% 1.2 mph N1.9 kmh N 1.2 mph1.9 kmh 26.39 in893.7 mb - 0.00 in0.0 mm 0.00 in0.0 mm
11:35 AM 61.0°F16.1°C 44.2°F6.8°C 54% 2.3 mph NW3.7 kmh NW 2.3 mph3.7 kmh 26.40 in894.0 mb - 0.00 in0.0 mm 0.00 in0.0 mm
11:40 AM 60.0°F15.6°C 41.8°F5.4°C 51% Calm Calm 1.2 mph1.9 kmh 26.39 in893.7 mb - 0.00 in0.0 mm 0.00 in0.0 mm
11:45 AM 60.0°F15.6°C 42.3°F5.7°C 52% Calm Calm -- 26.41 in894.3 mb - 0.00 in0.0 mm 0.00 in0.0 mm
11:50 AM 60.0°F15.6°C 42.8°F6.0°C 53% Calm Calm -- 26.41 in894.3 mb - 0.00 in0.0 mm 0.00 in0.0 mm
11:55 AM 60.0°F15.6°C 43.3°F6.3°C 54% Calm Calm -- 26.40 in894.0 mb - 0.00 in0.0 mm 0.00 in0.0 mm
12:00 PM 60.0°F15.6°C 42.3°F5.7°C 52% Calm Calm 1.2 mph1.9 kmh 26.40 in894.0 mb - 0.00 in0.0 mm 0.00 in0.0 mm
12:10 PM 58.0°F14.4°C 41.0°F5.0°C 53% Calm Calm 1.2 mph1.9 kmh 26.40 in894.0 mb - 0.00 in0.0 mm 0.00 in0.0 mm
12:15 PM 59.0°F15.0°C 41.4°F5.2°C 52% Calm Calm 1.2 mph1.9 kmh 26.40 in894.0 mb - 0.00 in0.0 mm 0.00 in0.0 mm
12:20 PM 58.8°F14.9°C 41.2°F5.1°C 52% Calm Calm 1.2 mph1.9 kmh 26.40 in894.0 mb - 0.00 in0.0 mm 0.00 in0.0 mm
12:25 PM 58.0°F14.4°C 41.4°F5.2°C 54% Calm Calm -- 26.40 in894.0 mb - 0.00 in0.0 mm 0.00 in0.0 mm
12:30 PM 59.0°F15.0°C 41.4°F5.2°C 52% 1.2 mph N1.9 kmh N 1.2 mph1.9 kmh 26.40 in894.0 mb - 0.00 in0.0 mm 0.00 in0.0 mm
12:35 PM 59.0°F15.0°C 42.8°F6.0°C 55% Calm Calm -- 26.40 in894.0 mb - 0.00 in0.0 mm 0.00 in0.0 mm
12:40 PM 58.0°F14.4°C 43.7°F6.5°C 59% Calm Calm 1.2 mph1.9 kmh 26.40 in894.0 mb - 0.00 in0.0 mm 0.00 in0.0 mm
12:45 PM 59.0°F15.0°C 43.3°F6.3°C 56% Calm Calm -- 26.40 in894.0 mb - 0.00 in0.0 mm 0.00 in0.0 mm
12:50 PM 59.5°F15.3°C 43.3°F6.3°C 55% Calm Calm 2.3 mph3.7 kmh 26.40 in894.0 mb - 0.00 in0.0 mm 0.00 in0.0 mm
12:55 PM 61.0°F16.1°C 42.7°F5.9°C 51% 2.3 mph N3.7 kmh N 2.3 mph3.7 kmh 26.40 in894.0 mb - 0.00 in0.0 mm 0.00 in0.0 mm
01:00 PM 62.0°F16.7°C 45.2°F7.3°C 54% 1.2 mph N1.9 kmh N 1.2 mph1.9 kmh 26.40 in894.0 mb - 0.00 in0.0 mm 0.00 in0.0 mm
01:10 PM 58.0°F14.4°C 42.8°F6.0°C 57% 1.2 mph N1.9 kmh N 1.2 mph1.9 kmh 26.39 in893.7 mb - 0.00 in0.0 mm 0.00 in0.0 mm
01:15 PM 58.0°F14.4°C 42.8°F6.0°C 57% 1.2 mph NNE1.9 kmh NNE 2.3 mph3.7 kmh 26.40 in894.0 mb - 0.00 in0.0 mm 0.00 in0.0 mm
01:20 PM 58.0°F14.4°C 42.8°F6.0°C 57% 1.2 mph N1.9 kmh N 3.5 mph5.6 kmh 26.40 in894.0 mb - 0.00 in0.0 mm 0.00 in0.0 mm
01:25 PM 58.0°F14.4°C 41.9°F5.5°C 55% 2.3 mph NNW3.7 kmh NNW 3.5 mph5.6 kmh 26.40 in894.0 mb - 0.00 in0.0 mm 0.00 in0.0 mm
01:30 PM 59.0°F15.0°C 42.8°F6.0°C 55% 1.2 mph WNW1.9 kmh WNW 1.2 mph1.9 kmh 26.40 in894.0 mb - 0.00 in0.0 mm 0.00 in0.0 mm
01:35 PM 60.0°F15.6°C 42.3°F5.7°C 52% 2.3 mph NNE3.7 kmh NNE 2.3 mph3.7 kmh 26.40 in894.0 mb - 0.00 in0.0 mm 0.00 in0.0 mm
01:40 PM 60.0°F15.6°C 44.3°F6.8°C 56% 1.2 mph NNE1.9 kmh NNE 1.2 mph1.9 kmh 26.40 in894.0 mb - 0.00 in0.0 mm 0.00 in0.0 mm
01:45 PM 59.0°F15.0°C 42.8°F6.0°C 55% Calm Calm 1.2 mph1.9 kmh 26.40 in894.0 mb - 0.00 in0.0 mm 0.00 in0.0 mm
01:50 PM 59.0°F15.0°C 42.4°F5.8°C 54% Calm Calm 1.2 mph1.9 kmh 26.40 in894.0 mb - 0.00 in0.0 mm 0.00 in0.0 mm
01:55 PM 59.0°F15.0°C 41.9°F5.5°C 53% 1.2 mph NNW1.9 kmh NNW 1.2 mph1.9 kmh 26.40 in894.0 mb - 0.00 in0.0 mm 0.00 in0.0 mm
02:00 PM 60.0°F15.6°C 42.3°F5.7°C 52% Calm Calm 1.2 mph1.9 kmh 26.40 in894.0 mb - 0.00 in0.0 mm 0.00 in0.0 mm
02:10 PM 60.0°F15.6°C 42.3°F5.7°C 52% 1.2 mph N1.9 kmh N 1.2 mph1.9 kmh 26.40 in894.0 mb - 0.00 in0.0 mm 0.00 in0.0 mm
02:15 PM 60.0°F15.6°C 41.3°F5.2°C 50% Calm Calm -- 26.40 in894.0 mb - 0.00 in0.0 mm 0.00 in0.0 mm
02:20 PM 60.0°F15.6°C 41.3°F5.2°C 50% Calm Calm -- 26.40 in894.0 mb - 0.00 in0.0 mm 0.00 in0.0 mm
02:25 PM 60.0°F15.6°C 41.8°F5.4°C 51% Calm Calm -- 26.40 in894.0 mb - 0.00 in0.0 mm 0.00 in0.0 mm
02:30 PM 60.0°F15.6°C 42.3°F5.7°C 52% 1.2 mph NW1.9 kmh NW 2.3 mph3.7 kmh 26.41 in894.3 mb - 0.00 in0.0 mm 0.00 in0.0 mm
02:35 PM 60.0°F15.6°C 42.8°F6.0°C 53% 2.3 mph NNW3.7 kmh NNW 2.3 mph3.7 kmh 26.40 in894.0 mb - 0.00 in0.0 mm 0.00 in0.0 mm
02:40 PM 60.0°F15.6°C 43.3°F6.3°C 54% 1.2 mph NNE1.9 kmh NNE 2.3 mph3.7 kmh 26.41 in894.3 mb - 0.00 in0.0 mm 0.00 in0.0 mm
02:45 PM 60.0°F15.6°C 43.8°F6.6°C 55% Calm Calm 2.3 mph3.7 kmh 26.40 in894.0 mb - 0.00 in0.0 mm 0.00 in0.0 mm
02:50 PM 60.0°F15.6°C 43.8°F6.6°C 55% Calm Calm 2.3 mph3.7 kmh 26.40 in894.0 mb - 0.00 in0.0 mm 0.00 in0.0 mm
02:55 PM 60.0°F15.6°C 43.3°F6.3°C 54% 2.3 mph N3.7 kmh N 2.3 mph3.7 kmh 26.40 in894.0 mb - 0.00 in0.0 mm 0.00 in0.0 mm
03:00 PM 61.0°F16.1°C 42.7°F5.9°C 51% 2.3 mph N3.7 kmh N 3.5 mph5.6 kmh 26.40 in894.0 mb - 0.00 in0.0 mm 0.00 in0.0 mm
03:10 PM 60.0°F15.6°C 42.8°F6.0°C 53% 1.2 mph NNE1.9 kmh NNE 1.2 mph1.9 kmh 26.40 in894.0 mb - 0.00 in0.0 mm 0.00 in0.0 mm
03:15 PM 60.0°F15.6°C 42.8°F6.0°C 53% 1.2 mph N1.9 kmh N 2.3 mph3.7 kmh 26.41 in894.3 mb - 0.00 in0.0 mm 0.00 in0.0 mm
03:20 PM 60.0°F15.6°C 42.8°F6.0°C 53% 1.2 mph N1.9 kmh N 2.3 mph3.7 kmh 26.41 in894.3 mb - 0.00 in0.0 mm 0.00 in0.0 mm
03:25 PM 60.0°F15.6°C 41.3°F5.2°C 50% 1.2 mph NW1.9 kmh NW 2.3 mph3.7 kmh 26.41 in894.3 mb - 0.00 in0.0 mm 0.00 in0.0 mm
03:30 PM 60.0°F15.6°C 43.8°F6.6°C 55% 1.2 mph NNE1.9 kmh NNE 1.2 mph1.9 kmh 26.40 in894.0 mb - 0.00 in0.0 mm 0.00 in0.0 mm
03:35 PM 60.0°F15.6°C 43.3°F6.3°C 54% Calm Calm 1.2 mph1.9 kmh 26.41 in894.3 mb - 0.00 in0.0 mm 0.00 in0.0 mm
03:40 PM 60.0°F15.6°C 40.8°F4.9°C 49% 1.2 mph N1.9 kmh N 1.2 mph1.9 kmh 26.40 in894.0 mb - 0.00 in0.0 mm 0.00 in0.0 mm
03:45 PM 60.0°F15.6°C 40.2°F4.6°C 48% 1.2 mph N1.9 kmh N 1.2 mph1.9 kmh 26.41 in894.3 mb - 0.00 in0.0 mm 0.00 in0.0 mm
03:50 PM 60.0°F15.6°C 40.2°F4.6°C 48% 1.2 mph N1.9 kmh N 1.2 mph1.9 kmh 26.41 in894.3 mb - 0.00 in0.0 mm 0.00 in0.0 mm
03:55 PM 60.0°F15.6°C 42.8°F6.0°C 53% Calm Calm -- 26.41 in894.3 mb - 0.00 in0.0 mm 0.00 in0.0 mm
04:00 PM 61.0°F16.1°C 41.7°F5.4°C 49% Calm Calm -- 26.41 in894.3 mb - 0.00 in0.0 mm 0.00 in0.0 mm
04:10 PM 61.0°F16.1°C 42.2°F5.7°C 50% Calm Calm -- 26.41 in894.3 mb - 0.00 in0.0 mm 0.00 in0.0 mm
04:15 PM 61.0°F16.1°C 42.7°F5.9°C 51% Calm Calm 1.2 mph1.9 kmh 26.41 in894.3 mb - 0.00 in0.0 mm 0.00 in0.0 mm
04:20 PM 61.0°F16.1°C 42.7°F5.9°C 51% Calm Calm 1.2 mph1.9 kmh 26.41 in894.3 mb - 0.00 in0.0 mm 0.00 in0.0 mm
04:25 PM 60.0°F15.6°C 42.3°F5.7°C 52% 2.3 mph NNW3.7 kmh NNW 3.5 mph5.6 kmh 26.41 in894.3 mb - 0.00 in0.0 mm 0.00 in0.0 mm
04:30 PM 60.0°F15.6°C 42.3°F5.7°C 52% Calm Calm 1.2 mph1.9 kmh 26.41 in894.3 mb - 0.00 in0.0 mm 0.00 in0.0 mm
04:35 PM 61.0°F16.1°C 42.2°F5.7°C 50% 2.3 mph NNW3.7 kmh NNW 2.3 mph3.7 kmh 26.40 in894.0 mb - 0.00 in0.0 mm 0.00 in0.0 mm
04:40 PM 64.0°F17.8°C 45.0°F7.2°C 50% 1.2 mph WSW1.9 kmh WSW 1.2 mph1.9 kmh 26.40 in894.0 mb - 0.00 in0.0 mm 0.00 in0.0 mm
04:45 PM 64.0°F17.8°C 44.4°F6.9°C 49% 1.2 mph NW1.9 kmh NW 2.3 mph3.7 kmh 26.40 in894.0 mb - 0.00 in0.0 mm 0.00 in0.0 mm
04:50 PM 62.0°F16.7°C 42.6°F5.9°C 49% 2.3 mph N3.7 kmh N 2.3 mph3.7 kmh 26.40 in894.0 mb - 0.00 in0.0 mm 0.00 in0.0 mm
04:55 PM 61.0°F16.1°C 43.7°F6.5°C 53% Calm Calm 1.2 mph1.9 kmh 26.40 in894.0 mb - 0.00 in0.0 mm 0.00 in0.0 mm
05:00 PM 60.0°F15.6°C 42.8°F6.0°C 53% 1.2 mph N1.9 kmh N 2.3 mph3.7 kmh 26.41 in894.3 mb - 0.00 in0.0 mm 0.00 in0.0 mm
05:10 PM 59.0°F15.0°C 41.9°F5.5°C 53% Calm Calm 1.2 mph1.9 kmh 26.41 in894.3 mb - 0.00 in0.0 mm 0.00 in0.0 mm
05:15 PM 59.0°F15.0°C 41.9°F5.5°C 53% 1.2 mph N1.9 kmh N 2.3 mph3.7 kmh 26.41 in894.3 mb - 0.00 in0.0 mm 0.00 in0.0 mm
05:20 PM 59.0°F15.0°C 41.9°F5.5°C 53% 2.3 mph N3.7 kmh N 2.3 mph3.7 kmh 26.41 in894.3 mb - 0.00 in0.0 mm 0.00 in0.0 mm
05:25 PM 60.0°F15.6°C 41.8°F5.4°C 51% 1.2 mph N1.9 kmh N 1.2 mph1.9 kmh 26.41 in894.3 mb - 0.00 in0.0 mm 0.00 in0.0 mm
05:30 PM 60.0°F15.6°C 43.8°F6.6°C 55% 1.2 mph N1.9 kmh N 1.2 mph1.9 kmh 26.41 in894.3 mb - 0.00 in0.0 mm 0.00 in0.0 mm
05:35 PM 61.0°F16.1°C 43.2°F6.2°C 52% 1.2 mph NNW1.9 kmh NNW 2.3 mph3.7 kmh 26.41 in894.3 mb - 0.00 in0.0 mm 0.00 in0.0 mm
05:40 PM 61.0°F16.1°C 43.2°F6.2°C 52% 2.3 mph N3.7 kmh N 2.3 mph3.7 kmh 26.40 in894.0 mb - 0.00 in0.0 mm 0.00 in0.0 mm
05:45 PM 60.6°F15.9°C 43.8°F6.6°C 54% 1.2 mph N1.9 kmh N 2.3 mph3.7 kmh 26.40 in894.0 mb - 0.00 in0.0 mm 0.00 in0.0 mm
05:50 PM 60.0°F15.6°C 44.7°F7.1°C 57% Calm Calm -- 26.41 in894.3 mb - 0.00 in0.0 mm 0.00 in0.0 mm
05:55 PM 61.0°F16.1°C 42.7°F5.9°C 51% 1.2 mph N1.9 kmh N 2.3 mph3.7 kmh 26.41 in894.3 mb - 0.00 in0.0 mm 0.00 in0.0 mm
06:00 PM 61.0°F16.1°C 43.2°F6.2°C 52% 3.5 mph N5.6 kmh N 3.5 mph5.6 kmh 26.42 in894.7 mb - 0.00 in0.0 mm 0.00 in0.0 mm
06:10 PM 60.0°F15.6°C 43.3°F6.3°C 54% 2.3 mph SE3.7 kmh SE 2.3 mph3.7 kmh 26.42 in894.7 mb - 0.00 in0.0 mm 0.00 in0.0 mm
06:15 PM 59.7°F15.4°C 43.5°F6.4°C 55% 1.2 mph SE1.9 kmh SE 2.3 mph3.7 kmh 26.42 in894.7 mb - 0.00 in0.0 mm 0.00 in0.0 mm
06:20 PM 59.0°F15.0°C 44.2°F6.8°C 58% Calm Calm -- 26.42 in894.7 mb - 0.00 in0.0 mm 0.00 in0.0 mm
06:25 PM 58.0°F14.4°C 42.8°F6.0°C 57% Calm Calm 1.2 mph1.9 kmh 26.43 in895.0 mb - 0.00 in0.0 mm 0.00 in0.0 mm
06:30 PM 58.0°F14.4°C 43.3°F6.3°C 58% 1.2 mph NE1.9 kmh NE 1.2 mph1.9 kmh 26.43 in895.0 mb - 0.00 in0.0 mm 0.00 in0.0 mm
06:35 PM 57.0°F13.9°C 43.2°F6.2°C 60% Calm Calm 1.2 mph1.9 kmh 26.44 in895.4 mb - 0.00 in0.0 mm 0.00 in0.0 mm
06:40 PM 57.0°F13.9°C 44.1°F6.7°C 62% Calm Calm -- 26.44 in895.4 mb - 0.00 in0.0 mm 0.00 in0.0 mm
06:45 PM 56.7°F13.7°C 43.8°F6.6°C 62% Calm Calm -- 26.44 in895.4 mb - 0.00 in0.0 mm 0.00 in0.0 mm
06:50 PM 56.0°F13.3°C 42.7°F5.9°C 61% Calm Calm -- 26.43 in895.0 mb - 0.00 in0.0 mm 0.00 in0.0 mm
06:55 PM 56.0°F13.3°C 42.3°F5.7°C 60% Calm Calm 1.2 mph1.9 kmh 26.44 in895.4 mb - 0.00 in0.0 mm 0.00 in0.0 mm
07:00 PM 56.0°F13.3°C 43.6°F6.4°C 63% Calm Calm -- 26.45 in895.7 mb - 0.00 in0.0 mm 0.00 in0.0 mm
07:10 PM 55.0°F12.8°C 45.8°F7.7°C 71% Calm Calm -- 26.44 in895.4 mb - 0.00 in0.0 mm 0.00 in0.0 mm
07:15 PM 55.0°F12.8°C 45.4°F7.4°C 70% Calm Calm -- 26.44 in895.4 mb - 0.00 in0.0 mm 0.00 in0.0 mm
07:20 PM 55.0°F12.8°C 44.6°F7.0°C 68% Calm Calm -- 26.45 in895.7 mb - 0.00 in0.0 mm 0.00 in0.0 mm
07:25 PM 55.0°F12.8°C 43.8°F6.6°C 66% Calm Calm -- 26.45 in895.7 mb - 0.00 in0.0 mm 0.00 in0.0 mm
07:30 PM 54.0°F12.2°C 44.1°F6.7°C 69% Calm Calm 1.2 mph1.9 kmh 26.46 in896.0 mb - 0.00 in0.0 mm 0.00 in0.0 mm
07:35 PM 54.0°F12.2°C 44.8°F7.1°C 71% Calm Calm -- 26.46 in896.0 mb - 0.00 in0.0 mm 0.00 in0.0 mm
07:40 PM 53.0°F11.7°C 43.1°F6.2°C 69% Calm Calm -- 26.45 in895.7 mb - 0.00 in0.0 mm 0.00 in0.0 mm
07:45 PM 53.0°F11.7°C 43.1°F6.2°C 69% Calm Calm -- 26.45 in895.7 mb - 0.00 in0.0 mm 0.00 in0.0 mm
07:50 PM 53.0°F11.7°C 43.5°F6.4°C 70% Calm Calm -- 26.45 in895.7 mb - 0.00 in0.0 mm 0.00 in0.0 mm
07:55 PM 51.0°F10.6°C 43.4°F6.3°C 75% Calm Calm -- 26.46 in896.0 mb - 0.00 in0.0 mm 0.00 in0.0 mm
08:00 PM 51.0°F10.6°C 43.4°F6.3°C 75% Calm Calm -- 26.47 in896.4 mb - 0.00 in0.0 mm 0.00 in0.0 mm
08:10 PM 50.0°F10.0°C 44.1°F6.7°C 80% Calm Calm -- 26.48 in896.7 mb - 0.00 in0.0 mm 0.00 in0.0 mm
08:15 PM 50.0°F10.0°C 44.4°F6.9°C 81% Calm Calm -- 26.48 in896.7 mb - 0.00 in0.0 mm 0.00 in0.0 mm
08:20 PM 50.0°F10.0°C 44.7°F7.1°C 82% Calm Calm -- 26.48 in896.7 mb - 0.00 in0.0 mm 0.00 in0.0 mm
08:25 PM 49.0°F9.4°C 43.7°F6.5°C 82% Calm Calm -- 26.49 in897.1 mb - 0.00 in0.0 mm 0.00 in0.0 mm
08:30 PM 49.0°F9.4°C 43.7°F6.5°C 82% Calm Calm -- 26.50 in897.4 mb - 0.00 in0.0 mm 0.00 in0.0 mm
08:35 PM 49.0°F9.4°C 43.7°F6.5°C 82% Calm Calm -- 26.50 in897.4 mb - 0.00 in0.0 mm 0.00 in0.0 mm
08:40 PM 49.0°F9.4°C 43.1°F6.2°C 80% Calm Calm -- 26.51 in897.7 mb - 0.00 in0.0 mm 0.00 in0.0 mm
08:45 PM 48.2°F9.0°C 43.0°F6.1°C 82% Calm Calm -- 26.51 in897.7 mb - 0.00 in0.0 mm 0.00 in0.0 mm
08:50 PM 48.0°F8.9°C 43.1°F6.2°C 83% Calm Calm 1.2 mph1.9 kmh 26.51 in897.7 mb - 0.00 in0.0 mm 0.00 in0.0 mm
08:55 PM 48.0°F8.9°C 42.4°F5.8°C 81% Calm Calm 1.2 mph1.9 kmh 26.51 in897.7 mb - 0.00 in0.0 mm 0.00 in0.0 mm
09:00 PM 51.0°F10.6°C 43.0°F6.1°C 74% Calm Calm 1.2 mph1.9 kmh 26.51 in897.7 mb - 0.00 in0.0 mm 0.00 in0.0 mm
09:10 PM 49.0°F9.4°C 44.1°F6.7°C 83% Calm Calm -- 26.51 in897.7 mb - 0.00 in0.0 mm 0.00 in0.0 mm
09:15 PM 48.0°F8.9°C 43.1°F6.2°C 83% Calm Calm -- 26.51 in897.7 mb - 0.00 in0.0 mm 0.00 in0.0 mm
09:20 PM 48.0°F8.9°C 43.4°F6.3°C 84% Calm Calm -- 26.51 in897.7 mb - 0.00 in0.0 mm 0.00 in0.0 mm
09:25 PM 48.0°F8.9°C 43.7°F6.5°C 85% Calm Calm -- 26.51 in897.7 mb - 0.00 in0.0 mm 0.00 in0.0 mm
09:30 PM 48.0°F8.9°C 43.1°F6.2°C 83% Calm Calm -- 26.53 in898.4 mb - 0.00 in0.0 mm 0.00 in0.0 mm
09:35 PM 49.0°F9.4°C 43.1°F6.2°C 80% Calm Calm -- 26.52 in898.1 mb - 0.00 in0.0 mm 0.00 in0.0 mm
09:40 PM 48.0°F8.9°C 42.8°F6.0°C 82% Calm Calm -- 26.52 in898.1 mb - 0.00 in0.0 mm 0.00 in0.0 mm
09:45 PM 47.0°F8.3°C 42.4°F5.8°C 84% Calm Calm -- 26.52 in898.1 mb - 0.00 in0.0 mm 0.00 in0.0 mm
09:50 PM 48.0°F8.9°C 42.8°F6.0°C 82% Calm Calm -- 26.52 in898.1 mb - 0.00 in0.0 mm 0.00 in0.0 mm
09:55 PM 47.7°F8.7°C 42.8°F6.0°C 83% Calm Calm -- 26.52 in898.1 mb - 0.00 in0.0 mm 0.00 in0.0 mm
10:00 PM 47.0°F8.3°C 43.0°F6.1°C 86% Calm Calm -- 26.53 in898.4 mb - 0.00 in0.0 mm 0.00 in0.0 mm
10:10 PM 46.0°F7.8°C 41.4°F5.2°C 84% Calm Calm -- 26.53 in898.4 mb - 0.00 in0.0 mm 0.00 in0.0 mm
10:15 PM 47.0°F8.3°C 43.0°F6.1°C 86% Calm Calm -- 26.53 in898.4 mb - 0.00 in0.0 mm 0.00 in0.0 mm
10:20 PM 46.0°F7.8°C 42.3°F5.7°C 87% Calm Calm -- 26.53 in898.4 mb - 0.00 in0.0 mm 0.00 in0.0 mm
10:25 PM 45.1°F7.3°C 41.8°F5.4°C 88% Calm Calm -- 26.53 in898.4 mb - 0.00 in0.0 mm 0.00 in0.0 mm
10:30 PM 45.0°F7.2°C 41.7°F5.4°C 88% Calm Calm -- 26.53 in898.4 mb - 0.00 in0.0 mm 0.00 in0.0 mm
10:35 PM 45.0°F7.2°C 41.4°F5.2°C 87% Calm Calm -- 26.53 in898.4 mb - 0.00 in0.0 mm 0.00 in0.0 mm
10:40 PM 46.0°F7.8°C 42.3°F5.7°C 87% Calm Calm -- 26.53 in898.4 mb - 0.00 in0.0 mm 0.00 in0.0 mm
10:45 PM 45.0°F7.2°C 42.2°F5.7°C 90% Calm Calm -- 26.53 in898.4 mb - 0.00 in0.0 mm 0.00 in0.0 mm
10:50 PM 46.0°F7.8°C 42.0°F5.6°C 86% Calm Calm -- 26.54 in898.7 mb - 0.00 in0.0 mm 0.00 in0.0 mm
10:55 PM 46.0°F7.8°C 42.3°F5.7°C 87% Calm Calm -- 26.53 in898.4 mb - 0.00 in0.0 mm 0.00 in0.0 mm
11:00 PM 45.2°F7.3°C 41.9°F5.5°C 88% Calm Calm -- 26.53 in898.4 mb - 0.00 in0.0 mm 0.00 in0.0 mm
11:10 PM 45.0°F7.2°C 42.0°F5.6°C 89% Calm Calm -- 26.53 in898.4 mb - 0.00 in0.0 mm 0.00 in0.0 mm
11:15 PM 44.0°F6.7°C 41.0°F5.0°C 89% Calm Calm -- 26.54 in898.7 mb - 0.00 in0.0 mm 0.00 in0.0 mm
11:20 PM 45.0°F7.2°C 42.0°F5.6°C 89% Calm Calm -- 26.54 in898.7 mb - 0.00 in0.0 mm 0.00 in0.0 mm
11:25 PM 45.0°F7.2°C 41.7°F5.4°C 88% Calm Calm -- 26.53 in898.4 mb - 0.00 in0.0 mm 0.00 in0.0 mm
11:30 PM 45.0°F7.2°C 42.0°F5.6°C 89% Calm Calm -- 26.54 in898.7 mb - 0.00 in0.0 mm 0.00 in0.0 mm
11:35 PM 45.0°F7.2°C 41.7°F5.4°C 88% Calm Calm -- 26.54 in898.7 mb - 0.00 in0.0 mm 0.00 in0.0 mm
11:40 PM 45.0°F7.2°C 41.4°F5.2°C 87% Calm Calm -- 26.53 in898.4 mb - 0.00 in0.0 mm 0.00 in0.0 mm
11:45 PM 45.0°F7.2°C 42.0°F5.6°C 89% Calm Calm -- 26.53 in898.4 mb - 0.00 in0.0 mm 0.00 in0.0 mm
11:50 PM 44.0°F6.7°C 41.0°F5.0°C 89% Calm Calm -- 26.54 in898.7 mb - 0.00 in0.0 mm 0.00 in0.0 mm
11:55 PM 45.0°F7.2°C 42.2°F5.7°C 90% Calm Calm -- 26.54 in898.7 mb - 0.00 in0.0 mm 0.00 in0.0 mm